sensor_id;sensor_type;location;lat;lon;timestamp;pressure;altitude;pressure_sealevel;temperature;humidity
61345;BME280;47216;42.656;23.232;2023-03-31T00:00:13;93851.81;;;10.36;51.43
61345;BME280;47216;42.656;23.232;2023-03-31T00:02:40;93844.31;;;10.40;50.99
61345;BME280;47216;42.656;23.232;2023-03-31T00:05:08;93844.03;;;10.41;51.22
61345;BME280;47216;42.656;23.232;2023-03-31T00:07:35;93842.53;;;10.45;51.73
61345;BME280;47216;42.656;23.232;2023-03-31T00:10:04;93848.78;;;10.44;51.32
61345;BME280;47216;42.656;23.232;2023-03-31T00:12:33;93843.13;;;10.52;49.04
61345;BME280;47216;42.656;23.232;2023-03-31T00:15:00;93838.44;;;10.55;49.72
61345;BME280;47216;42.656;23.232;2023-03-31T00:17:27;93835.88;;;10.60;50.09
61345;BME280;47216;42.656;23.232;2023-03-31T00:19:57;93824.94;;;10.63;50.55
61345;BME280;47216;42.656;23.232;2023-03-31T00:22:25;93833.81;;;10.62;50.32
61345;BME280;47216;42.656;23.232;2023-03-31T00:24:52;93834.91;;;10.66;49.40
61345;BME280;47216;42.656;23.232;2023-03-31T00:27:19;93836.06;;;10.53;49.88
61345;BME280;47216;42.656;23.232;2023-03-31T00:29:47;93836.13;;;10.58;48.68
61345;BME280;47216;42.656;23.232;2023-03-31T00:32:15;93826.03;;;10.67;48.99
61345;BME280;47216;42.656;23.232;2023-03-31T00:34:42;93827.16;;;10.76;48.95
61345;BME280;47216;42.656;23.232;2023-03-31T00:37:09;93815.97;;;10.81;50.01
61345;BME280;47216;42.656;23.232;2023-03-31T00:39:39;93824.09;;;10.84;50.68
61345;BME280;47216;42.656;23.232;2023-03-31T00:42:05;93820.94;;;10.82;51.15
61345;BME280;47216;42.656;23.232;2023-03-31T00:44:35;93814.44;;;10.85;50.24
61345;BME280;47216;42.656;23.232;2023-03-31T00:47:11;93824.75;;;10.69;50.47
61345;BME280;47216;42.656;23.232;2023-03-31T00:49:40;93813.28;;;10.70;51.32
61345;BME280;47216;42.656;23.232;2023-03-31T00:52:13;93802.66;;;10.77;51.25
61345;BME280;47216;42.656;23.232;2023-03-31T00:54:42;93811.03;;;10.79;51.41
61345;BME280;47216;42.656;23.232;2023-03-31T00:57:10;93811.53;;;10.81;50.74
61345;BME280;47216;42.656;23.232;2023-03-31T00:59:39;93805.28;;;10.82;51.28
61345;BME280;47216;42.656;23.232;2023-03-31T01:02:09;93803.97;;;10.80;51.25
61345;BME280;47216;42.656;23.232;2023-03-31T01:04:44;93811.50;;;10.76;50.84
61345;BME280;47216;42.656;23.232;2023-03-31T01:07:17;93792.75;;;10.79;51.17
61345;BME280;47216;42.656;23.232;2023-03-31T01:09:47;93788.06;;;10.81;52.05
61345;BME280;47216;42.656;23.232;2023-03-31T01:12:17;93796.38;;;10.78;51.66
61345;BME280;47216;42.656;23.232;2023-03-31T01:14:44;93793.25;;;10.76;52.40
61345;BME280;47216;42.656;23.232;2023-03-31T01:17:13;93780.19;;;10.76;52.31
61345;BME280;47216;42.656;23.232;2023-03-31T01:19:53;93793.53;;;10.80;52.32
61345;BME280;47216;42.656;23.232;2023-03-31T01:25:48;93789.09;;;10.80;52.83
61345;BME280;47216;42.656;23.232;2023-03-31T01:28:27;93788.88;;;10.82;53.70
61345;BME280;47216;42.656;23.232;2023-03-31T01:34:23;93803.66;;;10.76;53.16
61345;BME280;47216;42.656;23.232;2023-03-31T01:40:12;93815.94;;;10.76;54.25
61345;BME280;47216;42.656;23.232;2023-03-31T01:42:44;93813.09;;;10.77;53.68
61345;BME280;47216;42.656;23.232;2023-03-31T01:45:25;93817.75;;;10.75;52.22
61345;BME280;47216;42.656;23.232;2023-03-31T01:47:56;93820.91;;;10.77;53.66
61345;BME280;47216;42.656;23.232;2023-03-31T01:50:28;93828.41;;;10.68;53.33
61345;BME280;47216;42.656;23.232;2023-03-31T01:53:01;93824.00;;;10.74;54.00
61345;BME280;47216;42.656;23.232;2023-03-31T01:55:35;93826.34;;;10.70;53.91
61345;BME280;47216;42.656;23.232;2023-03-31T01:58:07;93830.75;;;10.70;54.11
61345;BME280;47216;42.656;23.232;2023-03-31T02:00:40;93825.25;;;10.66;53.23
61345;BME280;47216;42.656;23.232;2023-03-31T02:03:13;93834.16;;;10.70;52.57
61345;BME280;47216;42.656;23.232;2023-03-31T02:05:44;93830.66;;;10.60;47.87
61345;BME280;47216;42.656;23.232;2023-03-31T02:08:14;93836.56;;;10.77;47.30
61345;BME280;47216;42.656;23.232;2023-03-31T02:10:44;93840.66;;;11.00;45.86
61345;BME280;47216;42.656;23.232;2023-03-31T02:13:13;93852.47;;;11.13;45.63
61345;BME280;47216;42.656;23.232;2023-03-31T02:15:43;93855.75;;;11.30;45.62
61345;BME280;47216;42.656;23.232;2023-03-31T02:18:15;93856.81;;;11.34;45.74
61345;BME280;47216;42.656;23.232;2023-03-31T02:20:46;93867.81;;;11.42;46.34
61345;BME280;47216;42.656;23.232;2023-03-31T02:23:17;93880.78;;;11.31;48.33
61345;BME280;47216;42.656;23.232;2023-03-31T02:25:50;93883.13;;;11.28;47.84
61345;BME280;47216;42.656;23.232;2023-03-31T02:28:21;93889.56;;;11.15;48.89
61345;BME280;47216;42.656;23.232;2023-03-31T02:30:53;93889.00;;;11.13;49.64
61345;BME280;47216;42.656;23.232;2023-03-31T02:33:26;93873.81;;;11.05;50.35
61345;BME280;47216;42.656;23.232;2023-03-31T02:35:53;93902.38;;;10.89;51.33
61345;BME280;47216;42.656;23.232;2023-03-31T02:38:20;93900.69;;;10.73;53.63
61345;BME280;47216;42.656;23.232;2023-03-31T02:40:48;93898.97;;;10.57;54.63
61345;BME280;47216;42.656;23.232;2023-03-31T02:43:15;93893.78;;;10.62;56.36
61345;BME280;47216;42.656;23.232;2023-03-31T02:45:44;93904.03;;;10.46;57.81
61345;BME280;47216;42.656;23.232;2023-03-31T02:48:15;93883.16;;;10.19;58.37
61345;BME280;47216;42.656;23.232;2023-03-31T02:51:00;93868.97;;;10.10;58.66
61345;BME280;47216;42.656;23.232;2023-03-31T02:53:36;93864.41;;;10.00;60.93
61345;BME280;47216;42.656;23.232;2023-03-31T02:56:21;93862.34;;;10.02;61.26
61345;BME280;47216;42.656;23.232;2023-03-31T02:58:59;93852.13;;;9.96;61.03
61345;BME280;47216;42.656;23.232;2023-03-31T03:01:49;93844.56;;;9.94;61.94
61345;BME280;47216;42.656;23.232;2023-03-31T03:04:36;93840.25;;;9.83;60.34
61345;BME280;47216;42.656;23.232;2023-03-31T03:07:12;93837.94;;;9.86;61.61
61345;BME280;47216;42.656;23.232;2023-03-31T03:09:48;93830.41;;;9.85;61.20
61345;BME280;47216;42.656;23.232;2023-03-31T03:12:23;93819.25;;;9.89;62.14
61345;BME280;47216;42.656;23.232;2023-03-31T03:14:56;93814.78;;;9.85;61.47
61345;BME280;47216;42.656;23.232;2023-03-31T03:17:29;93804.41;;;9.90;61.65
61345;BME280;47216;42.656;23.232;2023-03-31T03:19:59;93801.13;;;10.00;61.40
61345;BME280;47216;42.656;23.232;2023-03-31T03:22:27;93800.28;;;9.94;62.17
61345;BME280;47216;42.656;23.232;2023-03-31T03:24:54;93802.91;;;9.94;61.18
61345;BME280;47216;42.656;23.232;2023-03-31T03:27:22;93811.91;;;9.86;61.27
61345;BME280;47216;42.656;23.232;2023-03-31T03:29:49;93815.44;;;9.75;60.74
61345;BME280;47216;42.656;23.232;2023-03-31T03:32:16;93802.94;;;9.77;61.58
61345;BME280;47216;42.656;23.232;2023-03-31T03:34:43;93803.91;;;9.93;61.72
61345;BME280;47216;42.656;23.232;2023-03-31T03:37:09;93799.19;;;9.90;60.29
61345;BME280;47216;42.656;23.232;2023-03-31T03:39:36;93800.34;;;9.99;59.05
61345;BME280;47216;42.656;23.232;2023-03-31T03:42:03;93792.09;;;10.07;59.09
61345;BME280;47216;42.656;23.232;2023-03-31T03:44:32;93790.13;;;10.20;58.69
61345;BME280;47216;42.656;23.232;2023-03-31T03:46:58;93772.53;;;10.32;58.90
61345;BME280;47216;42.656;23.232;2023-03-31T03:49:25;93774.72;;;10.40;57.64
61345;BME280;47216;42.656;23.232;2023-03-31T03:51:52;93782.06;;;10.48;59.12
61345;BME280;47216;42.656;23.232;2023-03-31T03:54:19;93784.19;;;10.51;58.10
61345;BME280;47216;42.656;23.232;2023-03-31T03:56:46;93775.66;;;10.61;57.54
61345;BME280;47216;42.656;23.232;2023-03-31T03:59:13;93782.47;;;10.67;56.78
61345;BME280;47216;42.656;23.232;2023-03-31T04:01:41;93792.91;;;10.67;56.63
61345;BME280;47216;42.656;23.232;2023-03-31T04:04:07;93803.88;;;10.69;56.59
61345;BME280;47216;42.656;23.232;2023-03-31T04:06:34;93793.72;;;10.68;57.05
61345;BME280;47216;42.656;23.232;2023-03-31T04:09:01;93803.13;;;10.74;56.67
61345;BME280;47216;42.656;23.232;2023-03-31T04:11:28;93812.53;;;10.75;56.28
61345;BME280;47216;42.656;23.232;2023-03-31T04:13:55;93816.97;;;10.75;56.37
61345;BME280;47216;42.656;23.232;2023-03-31T04:16:22;93812.03;;;10.78;56.70
61345;BME280;47216;42.656;23.232;2023-03-31T04:18:51;93810.88;;;10.64;56.42
61345;BME280;47216;42.656;23.232;2023-03-31T04:21:21;93807.44;;;10.58;56.97
61345;BME280;47216;42.656;23.232;2023-03-31T04:23:49;93810.59;;;10.60;57.37
61345;BME280;47216;42.656;23.232;2023-03-31T04:26:23;93818.56;;;10.48;57.52
61345;BME280;47216;42.656;23.232;2023-03-31T04:28:55;93822.38;;;10.36;58.25
61345;BME280;47216;42.656;23.232;2023-03-31T04:31:25;93821.50;;;10.30;57.15
61345;BME280;47216;42.656;23.232;2023-03-31T04:33:53;93823.88;;;10.32;57.92
61345;BME280;47216;42.656;23.232;2023-03-31T04:36:25;93817.91;;;10.31;58.05
61345;BME280;47216;42.656;23.232;2023-03-31T04:38:53;93814.75;;;10.29;57.48
61345;BME280;47216;42.656;23.232;2023-03-31T04:41:20;93813.63;;;10.25;57.49
61345;BME280;47216;42.656;23.232;2023-03-31T04:43:47;93812.81;;;10.19;58.43
61345;BME280;47216;42.656;23.232;2023-03-31T04:46:14;93822.69;;;10.17;57.54
61345;BME280;47216;42.656;23.232;2023-03-31T04:48:41;93824.16;;;10.08;58.54
61345;BME280;47216;42.656;23.232;2023-03-31T04:51:09;93814.41;;;9.98;58.30
61345;BME280;47216;42.656;23.232;2023-03-31T04:53:36;93811.72;;;9.93;58.77
61345;BME280;47216;42.656;23.232;2023-03-31T04:56:03;93798.16;;;9.91;57.93
61345;BME280;47216;42.656;23.232;2023-03-31T04:58:30;93794.03;;;9.95;57.35
61345;BME280;47216;42.656;23.232;2023-03-31T05:00:57;93784.13;;;9.92;57.56
61345;BME280;47216;42.656;23.232;2023-03-31T05:03:24;93775.03;;;9.95;57.14
61345;BME280;47216;42.656;23.232;2023-03-31T05:05:51;93761.69;;;9.91;57.24
61345;BME280;47216;42.656;23.232;2023-03-31T05:08:19;93762.78;;;9.95;57.02
61345;BME280;47216;42.656;23.232;2023-03-31T05:10:46;93765.75;;;10.04;55.67
61345;BME280;47216;42.656;23.232;2023-03-31T05:13:13;93762.72;;;10.12;56.51
61345;BME280;47216;42.656;23.232;2023-03-31T05:15:40;93766.09;;;10.13;56.03
61345;BME280;47216;42.656;23.232;2023-03-31T05:18:09;93748.63;;;10.13;56.04
61345;BME280;47216;42.656;23.232;2023-03-31T05:20:36;93745.38;;;10.28;55.77
61345;BME280;47216;42.656;23.232;2023-03-31T05:23:03;93756.28;;;10.25;55.26
61345;BME280;47216;42.656;23.232;2023-03-31T05:25:31;93752.75;;;10.31;55.13
61345;BME280;47216;42.656;23.232;2023-03-31T05:27:58;93753.09;;;10.40;54.79
61345;BME280;47216;42.656;23.232;2023-03-31T05:30:26;93751.88;;;10.52;54.44
61345;BME280;47216;42.656;23.232;2023-03-31T05:32:54;93736.28;;;10.63;54.10
61345;BME280;47216;42.656;23.232;2023-03-31T05:35:21;93742.41;;;10.79;54.05
61345;BME280;47216;42.656;23.232;2023-03-31T05:37:48;93748.72;;;10.88;53.64
61345;BME280;47216;42.656;23.232;2023-03-31T05:40:15;93742.84;;;11.08;52.61
61345;BME280;47216;42.656;23.232;2023-03-31T05:42:43;93745.03;;;11.26;51.24
61345;BME280;47216;42.656;23.232;2023-03-31T05:45:10;93747.22;;;11.45;50.61
61345;BME280;47216;42.656;23.232;2023-03-31T05:47:38;93758.22;;;11.57;50.31
61345;BME280;47216;42.656;23.232;2023-03-31T05:50:05;93744.91;;;11.59;50.28
61345;BME280;47216;42.656;23.232;2023-03-31T05:52:33;93748.84;;;11.66;50.23
61345;BME280;47216;42.656;23.232;2023-03-31T05:55:00;93759.84;;;11.73;49.63
61345;BME280;47216;42.656;23.232;2023-03-31T05:57:27;93751.50;;;11.76;49.23
61345;BME280;47216;42.656;23.232;2023-03-31T05:59:55;93751.50;;;11.76;49.08
61345;BME280;47216;42.656;23.232;2023-03-31T06:02:22;93761.13;;;11.66;49.52
61345;BME280;47216;42.656;23.232;2023-03-31T06:04:49;93764.25;;;11.63;49.51
61345;BME280;47216;42.656;23.232;2023-03-31T06:07:16;93760.59;;;11.64;49.73
61345;BME280;47216;42.656;23.232;2023-03-31T06:09:44;93759.53;;;11.60;50.09
61345;BME280;47216;42.656;23.232;2023-03-31T06:12:11;93771.28;;;11.57;49.64
61345;BME280;47216;42.656;23.232;2023-03-31T06:14:38;93777.78;;;11.54;49.44
61345;BME280;47216;42.656;23.232;2023-03-31T06:17:06;93761.88;;;11.51;49.79
61345;BME280;47216;42.656;23.232;2023-03-31T06:19:33;93760.28;;;11.50;49.70
61345;BME280;47216;42.656;23.232;2023-03-31T06:22:00;93760.81;;;11.52;49.69
61345;BME280;47216;42.656;23.232;2023-03-31T06:24:27;93759.31;;;11.66;49.74
61345;BME280;47216;42.656;23.232;2023-03-31T06:26:54;93749.91;;;11.70;49.69
61345;BME280;47216;42.656;23.232;2023-03-31T06:29:20;93750.97;;;11.74;49.75
61345;BME280;47216;42.656;23.232;2023-03-31T06:31:47;93754.91;;;11.77;50.01
61345;BME280;47216;42.656;23.232;2023-03-31T06:34:15;93754.38;;;11.70;49.40
61345;BME280;47216;42.656;23.232;2023-03-31T06:36:42;93758.81;;;11.69;49.70
61345;BME280;47216;42.656;23.232;2023-03-31T06:39:09;93750.44;;;11.67;49.89
61345;BME280;47216;42.656;23.232;2023-03-31T06:41:36;93756.97;;;11.65;49.72
61345;BME280;47216;42.656;23.232;2023-03-31T06:44:03;93755.88;;;11.55;50.25
61345;BME280;47216;42.656;23.232;2023-03-31T06:46:30;93757.44;;;11.62;50.64
61345;BME280;47216;42.656;23.232;2023-03-31T06:48:56;93760.13;;;11.72;50.43
61345;BME280;47216;42.656;23.232;2023-03-31T06:51:25;93771.38;;;11.83;50.43
61345;BME280;47216;42.656;23.232;2023-03-31T06:53:51;93761.19;;;11.81;49.82
61345;BME280;47216;42.656;23.232;2023-03-31T06:56:18;93774.25;;;11.86;49.71
61345;BME280;47216;42.656;23.232;2023-03-31T06:58:45;93767.19;;;11.82;49.93
61345;BME280;47216;42.656;23.232;2023-03-31T07:01:12;93752.09;;;11.89;50.21
61345;BME280;47216;42.656;23.232;2023-03-31T07:03:38;93763.31;;;11.89;50.28
61345;BME280;47216;42.656;23.232;2023-03-31T07:06:05;93761.97;;;11.82;49.90
61345;BME280;47216;42.656;23.232;2023-03-31T07:08:33;93743.69;;;11.87;50.25
61345;BME280;47216;42.656;23.232;2023-03-31T07:11:01;93739.56;;;11.96;50.44
61345;BME280;47216;42.656;23.232;2023-03-31T07:13:28;93721.81;;;12.08;50.20
61345;BME280;47216;42.656;23.232;2023-03-31T07:15:55;93721.03;;;12.13;50.25
61345;BME280;47216;42.656;23.232;2023-03-31T07:18:22;93709.81;;;12.28;50.90
61345;BME280;47216;42.656;23.232;2023-03-31T07:20:56;93703.03;;;12.42;50.13
61345;BME280;47216;42.656;23.232;2023-03-31T07:23:23;93697.81;;;12.52;50.18
61345;BME280;47216;42.656;23.232;2023-03-31T07:25:51;93697.25;;;12.66;49.86
61345;BME280;47216;42.656;23.232;2023-03-31T07:28:18;93697.75;;;12.73;49.10
61345;BME280;47216;42.656;23.232;2023-03-31T07:30:45;93713.47;;;12.83;48.81
61345;BME280;47216;42.656;23.232;2023-03-31T07:33:12;93700.91;;;12.85;49.36
61345;BME280;47216;42.656;23.232;2023-03-31T07:35:39;93708.19;;;12.98;49.23
61345;BME280;47216;42.656;23.232;2023-03-31T07:38:07;93690.91;;;12.97;49.28
61345;BME280;47216;42.656;23.232;2023-03-31T07:40:35;93694.31;;;12.98;49.24
61345;BME280;47216;42.656;23.232;2023-03-31T07:43:03;93686.44;;;13.03;49.04
61345;BME280;47216;42.656;23.232;2023-03-31T07:45:31;93689.31;;;13.12;49.38
61345;BME280;47216;42.656;23.232;2023-03-31T07:47:58;93693.47;;;13.18;49.35
61345;BME280;47216;42.656;23.232;2023-03-31T07:50:24;93696.59;;;13.25;49.51
61345;BME280;47216;42.656;23.232;2023-03-31T07:52:51;93694.25;;;13.34;49.60
61345;BME280;47216;42.656;23.232;2023-03-31T07:55:19;93707.84;;;13.31;48.64
61345;BME280;47216;42.656;23.232;2023-03-31T07:57:48;93704.97;;;13.32;49.37
61345;BME280;47216;42.656;23.232;2023-03-31T08:00:18;93696.09;;;13.33;49.53
61345;BME280;47216;42.656;23.232;2023-03-31T08:02:45;93718.59;;;13.34;48.58
61345;BME280;47216;42.656;23.232;2023-03-31T08:05:14;93705.44;;;13.50;49.21
61345;BME280;47216;42.656;23.232;2023-03-31T08:07:44;93694.97;;;13.50;48.23
61345;BME280;47216;42.656;23.232;2023-03-31T08:10:13;93675.06;;;13.49;47.70
61345;BME280;47216;42.656;23.232;2023-03-31T08:12:40;93690.31;;;13.36;48.59
61345;BME280;47216;42.656;23.232;2023-03-31T08:15:07;93674.59;;;13.26;49.01
61345;BME280;47216;42.656;23.232;2023-03-31T08:17:36;93691.38;;;13.20;48.90
61345;BME280;47216;42.656;23.232;2023-03-31T08:20:04;93681.47;;;13.07;48.87
61345;BME280;47216;42.656;23.232;2023-03-31T08:22:32;93675.69;;;13.15;48.80
61345;BME280;47216;42.656;23.232;2023-03-31T08:24:59;93666.75;;;13.31;48.49
61345;BME280;47216;42.656;23.232;2023-03-31T08:27:26;93666.97;;;13.45;48.59
61345;BME280;47216;42.656;23.232;2023-03-31T08:29:52;93670.13;;;13.37;48.01
61345;BME280;47216;42.656;23.232;2023-03-31T08:32:21;93654.69;;;13.40;48.74
61345;BME280;47216;42.656;23.232;2023-03-31T08:34:50;93655.47;;;13.41;47.90
61345;BME280;47216;42.656;23.232;2023-03-31T08:37:16;93664.53;;;13.54;48.26
61345;BME280;47216;42.656;23.232;2023-03-31T08:39:43;93669.81;;;13.49;47.78
61345;BME280;47216;42.656;23.232;2023-03-31T08:42:14;93675.03;;;13.54;48.06
61345;BME280;47216;42.656;23.232;2023-03-31T08:44:43;93672.09;;;13.65;47.79
61345;BME280;47216;42.656;23.232;2023-03-31T08:47:14;93676.06;;;13.58;47.40
61345;BME280;47216;42.656;23.232;2023-03-31T08:49:46;93676.50;;;13.75;47.40
61345;BME280;47216;42.656;23.232;2023-03-31T08:52:19;93676.38;;;13.96;47.13
61345;BME280;47216;42.656;23.232;2023-03-31T08:54:50;93667.19;;;13.93;47.21
61345;BME280;47216;42.656;23.232;2023-03-31T08:57:20;93655.88;;;14.03;46.41
61345;BME280;47216;42.656;23.232;2023-03-31T08:59:50;93661.66;;;14.05;46.29
61345;BME280;47216;42.656;23.232;2023-03-31T09:02:22;93669.44;;;14.15;46.61
61345;BME280;47216;42.656;23.232;2023-03-31T09:05:03;93651.53;;;14.22;46.08
61345;BME280;47216;42.656;23.232;2023-03-31T09:07:43;93665.13;;;14.29;46.22
61345;BME280;47216;42.656;23.232;2023-03-31T09:10:27;93651.81;;;14.55;45.20
61345;BME280;47216;42.656;23.232;2023-03-31T09:13:02;93644.38;;;14.67;44.51
61345;BME280;47216;42.656;23.232;2023-03-31T09:15:37;93642.00;;;14.66;45.25
61345;BME280;47216;42.656;23.232;2023-03-31T09:18:12;93655.03;;;14.76;45.12
61345;BME280;47216;42.656;23.232;2023-03-31T09:20:44;93639.19;;;14.86;45.25
61345;BME280;47216;42.656;23.232;2023-03-31T09:23:21;93654.75;;;15.02;44.12
61345;BME280;47216;42.656;23.232;2023-03-31T09:25:49;93663.66;;;14.82;44.48
61345;BME280;47216;42.656;23.232;2023-03-31T09:28:19;93649.00;;;14.76;44.69
61345;BME280;47216;42.656;23.232;2023-03-31T09:30:47;93648.84;;;14.91;44.25
61345;BME280;47216;42.656;23.232;2023-03-31T09:33:18;93647.19;;;15.00;44.41
61345;BME280;47216;42.656;23.232;2023-03-31T09:35:45;93642.94;;;15.04;43.59
61345;BME280;47216;42.656;23.232;2023-03-31T09:38:14;93652.88;;;15.07;43.36
61345;BME280;47216;42.656;23.232;2023-03-31T09:40:41;93654.59;;;14.93;43.95
61345;BME280;47216;42.656;23.232;2023-03-31T09:43:17;93641.59;;;15.07;43.87
61345;BME280;47216;42.656;23.232;2023-03-31T09:45:47;93642.25;;;14.94;43.43
61345;BME280;47216;42.656;23.232;2023-03-31T09:48:18;93629.22;;;14.83;44.36
61345;BME280;47216;42.656;23.232;2023-03-31T09:50:48;93630.63;;;14.76;44.31
61345;BME280;47216;42.656;23.232;2023-03-31T09:53:20;93629.22;;;14.83;43.95
61345;BME280;47216;42.656;23.232;2023-03-31T09:55:53;93634.78;;;14.82;43.92
61345;BME280;47216;42.656;23.232;2023-03-31T09:58:21;93627.16;;;14.80;44.02
61345;BME280;47216;42.656;23.232;2023-03-31T10:00:57;93633.44;;;14.84;44.09
61345;BME280;47216;42.656;23.232;2023-03-31T10:03:25;93626.06;;;14.86;43.51
61345;BME280;47216;42.656;23.232;2023-03-31T10:05:55;93616.56;;;14.90;43.72
61345;BME280;47216;42.656;23.232;2023-03-31T10:08:29;93616.22;;;14.97;44.05
61345;BME280;47216;42.656;23.232;2023-03-31T10:11:06;93609.97;;;14.93;44.19
61345;BME280;47216;42.656;23.232;2023-03-31T10:13:40;93617.78;;;14.98;44.50
61345;BME280;47216;42.656;23.232;2023-03-31T10:16:13;93598.47;;;14.89;44.23
61345;BME280;47216;42.656;23.232;2023-03-31T10:18:41;93613.59;;;14.97;44.47
61345;BME280;47216;42.656;23.232;2023-03-31T10:21:19;93599.56;;;15.07;43.47
61345;BME280;47216;42.656;23.232;2023-03-31T10:23:49;93610.41;;;15.00;42.96
61345;BME280;47216;42.656;23.232;2023-03-31T10:26:17;93591.53;;;14.98;43.35
61345;BME280;47216;42.656;23.232;2023-03-31T10:28:47;93589.94;;;14.97;43.66
61345;BME280;47216;42.656;23.232;2023-03-31T10:31:15;93584.78;;;14.92;43.79
61345;BME280;47216;42.656;23.232;2023-03-31T10:33:44;93583.16;;;14.96;43.94
61345;BME280;47216;42.656;23.232;2023-03-31T10:36:20;93587.84;;;14.99;43.82
61345;BME280;47216;42.656;23.232;2023-03-31T10:38:50;93563.69;;;14.97;43.60
61345;BME280;47216;42.656;23.232;2023-03-31T10:41:20;93577.34;;;14.99;43.22
61345;BME280;47216;42.656;23.232;2023-03-31T10:43:49;93568.75;;;14.94;43.36
61345;BME280;47216;42.656;23.232;2023-03-31T10:46:17;93568.34;;;15.05;43.55
61345;BME280;47216;42.656;23.232;2023-03-31T10:48:44;93561.13;;;15.16;42.96
61345;BME280;47216;42.656;23.232;2023-03-31T10:51:14;93568.00;;;15.31;42.94
61345;BME280;47216;42.656;23.232;2023-03-31T10:53:43;93563.69;;;15.40;42.98
61345;BME280;47216;42.656;23.232;2023-03-31T10:56:32;93560.63;;;15.33;42.56
61345;BME280;47216;42.656;23.232;2023-03-31T10:59:18;93555.38;;;15.33;43.18
61345;BME280;47216;42.656;23.232;2023-03-31T11:01:57;93564.38;;;15.27;43.52
61345;BME280;47216;42.656;23.232;2023-03-31T11:04:40;93558.44;;;15.40;42.96
61345;BME280;47216;42.656;23.232;2023-03-31T11:07:16;93550.97;;;15.47;42.85
61345;BME280;47216;42.656;23.232;2023-03-31T11:10:02;93545.56;;;15.58;42.53
61345;BME280;47216;42.656;23.232;2023-03-31T11:12:39;93536.63;;;15.59;42.83
61345;BME280;47216;42.656;23.232;2023-03-31T11:15:17;93540.09;;;15.73;42.82
61345;BME280;47216;42.656;23.232;2023-03-31T11:18:02;93534.56;;;15.74;42.23
61345;BME280;47216;42.656;23.232;2023-03-31T11:20:36;93535.66;;;15.73;42.09
61345;BME280;47216;42.656;23.232;2023-03-31T11:23:14;93531.72;;;15.52;42.30
61345;BME280;47216;42.656;23.232;2023-03-31T11:25:50;93523.06;;;15.51;42.51
61345;BME280;47216;42.656;23.232;2023-03-31T11:28:45;93520.66;;;15.55;42.56
61345;BME280;47216;42.656;23.232;2023-03-31T11:31:29;93512.31;;;15.67;42.49
61345;BME280;47216;42.656;23.232;2023-03-31T11:34:09;93513.69;;;15.64;42.12
61345;BME280;47216;42.656;23.232;2023-03-31T11:36:50;93512.09;;;15.63;41.98
61345;BME280;47216;42.656;23.232;2023-03-31T11:39:35;93513.38;;;15.66;42.07
61345;BME280;47216;42.656;23.232;2023-03-31T11:42:09;93500.13;;;15.76;42.33
61345;BME280;47216;42.656;23.232;2023-03-31T11:44:41;93494.28;;;15.79;42.44
61345;BME280;47216;42.656;23.232;2023-03-31T11:47:14;93494.50;;;15.96;42.03
61345;BME280;47216;42.656;23.232;2023-03-31T11:49:47;93503.09;;;16.02;41.76
61345;BME280;47216;42.656;23.232;2023-03-31T11:52:18;93489.06;;;16.07;42.26
61345;BME280;47216;42.656;23.232;2023-03-31T11:54:52;93479.88;;;15.90;43.13
61345;BME280;47216;42.656;23.232;2023-03-31T11:57:24;93492.69;;;15.78;42.92
61345;BME280;47216;42.656;23.232;2023-03-31T11:59:57;93477.50;;;15.75;43.27
61345;BME280;47216;42.656;23.232;2023-03-31T12:02:35;93472.91;;;15.67;43.85
61345;BME280;47216;42.656;23.232;2023-03-31T12:05:06;93473.38;;;15.69;43.80
61345;BME280;47216;42.656;23.232;2023-03-31T12:07:38;93471.66;;;15.78;43.92
61345;BME280;47216;42.656;23.232;2023-03-31T12:10:14;93469.00;;;15.64;44.37
61345;BME280;47216;42.656;23.232;2023-03-31T12:12:45;93470.69;;;15.74;43.57
61345;BME280;47216;42.656;23.232;2023-03-31T12:15:18;93467.00;;;15.75;43.98
61345;BME280;47216;42.656;23.232;2023-03-31T12:17:51;93470.69;;;15.74;43.99
61345;BME280;47216;42.656;23.232;2023-03-31T12:20:28;93475.22;;;15.68;44.24
61345;BME280;47216;42.656;23.232;2023-03-31T12:22:57;93455.97;;;15.73;44.25
61345;BME280;47216;42.656;23.232;2023-03-31T12:25:34;93462.88;;;15.69;44.16
61345;BME280;47216;42.656;23.232;2023-03-31T12:28:06;93449.84;;;15.78;43.91
61345;BME280;47216;42.656;23.232;2023-03-31T12:30:36;93454.84;;;15.79;43.78
61345;BME280;47216;42.656;23.232;2023-03-31T12:33:18;93457.28;;;15.89;44.31
61345;BME280;47216;42.656;23.232;2023-03-31T12:35:59;93447.13;;;15.83;44.25
61345;BME280;47216;42.656;23.232;2023-03-31T12:38:40;93456.69;;;15.79;43.92
61345;BME280;47216;42.656;23.232;2023-03-31T12:41:15;93452.16;;;15.65;44.18
61345;BME280;47216;42.656;23.232;2023-03-31T12:43:59;93434.09;;;15.91;44.21
61345;BME280;47216;42.656;23.232;2023-03-31T12:49:44;93409.69;;;16.05;43.25
61345;BME280;47216;42.656;23.232;2023-03-31T12:52:17;93413.84;;;16.06;43.60
61345;BME280;47216;42.656;23.232;2023-03-31T12:54:59;93414.75;;;16.15;43.32
61345;BME280;47216;42.656;23.232;2023-03-31T12:57:34;93407.94;;;16.14;42.59
61345;BME280;47216;42.656;23.232;2023-03-31T13:00:24;93398.66;;;16.30;43.62
61345;BME280;47216;42.656;23.232;2023-03-31T13:05:53;93377.94;;;16.79;43.36
61345;BME280;47216;42.656;23.232;2023-03-31T13:08:51;93374.19;;;16.94;42.46
61345;BME280;47216;42.656;23.232;2023-03-31T13:11:19;93365.34;;;17.12;41.96
61345;BME280;47216;42.656;23.232;2023-03-31T13:13:57;93363.03;;;17.42;41.34
61345;BME280;47216;42.656;23.232;2023-03-31T13:16:25;93340.31;;;17.55;41.65
61345;BME280;47216;42.656;23.232;2023-03-31T13:18:53;93334.81;;;17.74;40.93
61345;BME280;47216;42.656;23.232;2023-03-31T13:21:22;93322.84;;;17.68;40.93
61345;BME280;47216;42.656;23.232;2023-03-31T13:23:49;93321.81;;;17.77;41.23